Time;durP1;ratioP1;P1;durP2;ratioP2;P2;SDS_P1;SDS_P2;PMS_P1;PMS_P2;Temp;Humidity;BMP_temperature;BMP_pressure;BME280_temperature;BME280_humidity;BME280_pressure;Samples;Min_cycle;Max_cycle;Signal;HPM_P1;HPM_P2
2021/12/15 00:02:21;;;;;;;;;;;;;;;8.32;100.00;102817.69;5074743;28;19931;-53
2021/12/15 00:04:50;;;;;;;;;;;;;;;8.29;100.00;102823.00;5073590;28;19924;-49
2021/12/15 00:07:20;;;;;;;;;;;;;;;8.34;100.00;102826.34;5072038;28;19924;-48
2021/12/15 00:09:47;;;;;;;;;;;;;;;8.31;100.00;102823.81;5106525;28;19924;-49
2021/12/15 00:12:15;;;;;;;;;;;;;;;8.31;100.00;102812.47;5074074;28;19928;-50
2021/12/15 00:14:42;;;;;;;;;;;;;;;8.29;100.00;102809.91;5075019;28;20026;-52
2021/12/15 00:17:12;;;;;;;;;;;;;;;8.29;100.00;102813.38;5058104;28;19967;-52
2021/12/15 00:19:38;;;;;;;;;;;;;;;8.25;100.00;102808.25;5074979;28;20019;-50
2021/12/15 00:22:05;;;;;;;;;;;;;;;8.24;100.00;102809.16;5072580;28;20408;-52
2021/12/15 00:24:32;;;;;;;;;;;;;;;8.24;100.00;102806.53;5071523;28;19928;-50
2021/12/15 00:26:59;;;;;;;;;;;;;;;8.33;100.00;102818.53;5074536;28;20327;-50
2021/12/15 00:29:25;;;;;;;;;;;;;;;8.34;100.00;102809.78;5071956;28;20002;-49
2021/12/15 00:31:52;;;;;;;;;;;;;;;8.26;100.00;102812.56;5073920;28;19974;-50
2021/12/15 00:34:19;;;;;;;;;;;;;;;8.28;100.00;102808.19;5073417;28;19925;-53
2021/12/15 00:36:47;;;;;;;;;;;;;;;8.26;100.00;102809.97;5073637;28;19963;-53
2021/12/15 00:39:14;;;;;;;;;;;;;;;8.25;100.00;102810.88;5071907;28;19981;-51
2021/12/15 00:41:41;;;;;;;;;;;;;;;8.24;100.00;102809.16;5071513;28;20283;-51
2021/12/15 00:44:08;;;;;;;;;;;;;;;8.23;100.00;102813.50;5074337;28;19924;-53
2021/12/15 00:46:35;;;;;;;;;;;;;;;8.24;100.00;102811.75;5074395;28;19943;-53
2021/12/15 00:49:03;;;;;;;;;;;;;;;8.20;100.00;102813.59;5073188;28;19931;-48
2021/12/15 00:51:29;;;;;;;;;;;;;;;8.21;100.00;102810.06;5074137;28;19924;-53
2021/12/15 00:53:56;;;;;;;;;;;;;;;8.20;100.00;102810.13;5073702;28;19966;-52
2021/12/15 00:56:23;;;;;;;;;;;;;;;8.25;100.00;102809.09;5071607;28;19928;-49
2021/12/15 00:58:49;;;;;;;;;;;;;;;8.18;100.00;102802.28;5072530;28;19963;-51
2021/12/15 01:01:17;;;;;;;;;;;;;;;8.26;100.00;102802.97;5074041;28;20395;-50
2021/12/15 01:03:44;;;;;;;;;;;;;;;8.19;100.00;102806.63;5074233;28;19929;-53
2021/12/15 01:06:12;;;;;;;;;;;;;;;8.19;100.00;102801.38;5074095;28;19924;-49
2021/12/15 01:08:45;;;;;;;;;;;;;;;8.20;100.00;102803.09;5072561;28;19928;-50
2021/12/15 01:11:32;;;;;;;;;;;;;;;8.22;100.00;102811.81;5073907;28;19924;-47
2021/12/15 01:22:16;;;;;;;;;;;;;;;8.17;100.00;102812.81;5055029;28;19925;-51
2021/12/15 01:24:43;;;;;;;;;;;;;;;8.16;100.00;102817.19;5072473;28;19925;-50
2021/12/15 01:27:10;;;;;;;;;;;;;;;8.18;100.00;102810.16;5073109;28;19986;-50
2021/12/15 01:29:36;;;;;;;;;;;;;;;8.16;100.00;102813.72;5072221;28;19932;-50
2021/12/15 01:32:03;;;;;;;;;;;;;;;8.14;100.00;102813.75;5070422;28;19950;-48
2021/12/15 01:34:30;;;;;;;;;;;;;;;8.16;100.00;102804.06;5070224;28;19971;-48
2021/12/15 01:36:57;;;;;;;;;;;;;;;8.17;100.00;102808.44;5073517;28;20354;-51
2021/12/15 01:39:24;;;;;;;;;;;;;;;8.19;100.00;102811.84;5070419;28;20286;-53
2021/12/15 01:41:55;;;;;;;;;;;;;;;8.22;100.00;102811.81;5070352;28;19928;-49
2021/12/15 01:46:59;;;;;;;;;;;;;;;8.20;100.00;102805.72;5073200;28;19925;-53
2021/12/15 01:49:32;;;;;;;;;;;;;;;8.17;100.00;102807.56;5073184;28;20287;-51
2021/12/15 01:52:01;;;;;;;;;;;;;;;8.20;100.00;102803.09;5070824;28;20723;-52
2021/12/15 01:54:29;;;;;;;;;;;;;;;8.21;100.00;102803.97;5103073;28;19946;-50
2021/12/15 01:56:56;;;;;;;;;;;;;;;8.18;100.00;102815.41;5073271;28;20015;-52
2021/12/15 01:59:24;;;;;;;;;;;;;;;8.23;100.00;102808.25;5073046;28;20391;-51
2021/12/15 02:01:51;;;;;;;;;;;;;;;8.21;100.00;102810.06;5073163;28;19924;-52
2021/12/15 02:04:19;;;;;;;;;;;;;;;8.24;100.00;102817.84;5069250;28;19967;-49
2021/12/15 02:06:46;;;;;;;;;;;;;;;8.25;100.00;102818.75;5070524;28;19946;-49
2021/12/15 02:09:15;;;;;;;;;;;;;;;8.25;100.00;102821.38;5073133;28;19924;-52
2021/12/15 02:11:42;;;;;;;;;;;;;;;8.25;100.00;102827.47;5073238;28;19925;-53
2021/12/15 02:14:11;;;;;;;;;;;;;;;8.22;100.00;102832.78;5071322;28;19982;-51
2021/12/15 02:16:37;;;;;;;;;;;;;;;8.28;100.00;102829.16;5069643;28;19932;-51
2021/12/15 02:19:04;;;;;;;;;;;;;;;8.24;100.00;102824.88;5072686;28;20263;-52
2021/12/15 02:21:31;;;;;;;;;;;;;;;8.28;100.00;102831.75;5070072;28;20457;-53
2021/12/15 02:23:59;;;;;;;;;;;;;;;8.28;100.00;102827.38;5068972;28;20371;-53
2021/12/15 02:26:28;;;;;;;;;;;;;;;8.31;100.00;102820.34;5072628;28;19925;-51
2021/12/15 02:28:55;;;;;;;;;;;;;;;8.26;100.00;102826.56;5071471;28;19924;-53
2021/12/15 02:39:11;;;;;;;;;;;;;;;8.23;100.00;102828.38;5069709;28;19974;-52
2021/12/15 02:41:39;;;;;;;;;;;;;;;8.18;100.00;102828.50;5072026;28;20288;-51
2021/12/15 02:44:07;;;;;;;;;;;;;;;8.22;100.00;102829.28;5072410;28;19925;-49
2021/12/15 02:46:34;;;;;;;;;;;;;;;8.22;100.00;102830.16;5054669;28;19928;-50
2021/12/15 02:49:03;;;;;;;;;;;;;;;8.22;100.00;102824.91;5071295;28;19931;-52
2021/12/15 02:51:30;;;;;;;;;;;;;;;8.27;100.00;102824.78;5072392;28;19977;-49
2021/12/15 02:53:57;;;;;;;;;;;;;;;8.25;100.00;102826.59;5072378;28;19924;-51
2021/12/15 02:56:24;;;;;;;;;;;;;;;8.25;100.00;102832.69;5071190;28;20395;-49
2021/12/15 02:58:56;;;;;;;;;;;;;;;8.23;100.00;102833.63;5072585;28;20323;-51
2021/12/15 03:01:34;;;;;;;;;;;;;;;8.27;100.00;102828.25;5072451;28;19924;-51
2021/12/15 03:06:36;;;;;;;;;;;;;;;8.18;100.00;102828.50;5072429;28;20429;-50
2021/12/15 03:17:30;;;;;;;;;;;;;;;8.15;100.00;102817.22;5067582;28;20015;-52
2021/12/15 03:19:56;;;;;;;;;;;;;;;8.18;100.00;102825.00;5069188;28;19982;-47
2021/12/15 03:22:23;;;;;;;;;;;;;;;8.19;100.00;102822.34;5069932;28;20372;-46
2021/12/15 03:24:50;;;;;;;;;;;;;;;8.19;100.00;102824.97;5069197;28;19933;-46
2021/12/15 03:27:18;;;;;;;;;;;;;;;8.18;100.00;102825.88;5070817;28;19924;-47
2021/12/15 03:35:32;;;;;;;;;;;;;;;8.19;100.00;102822.34;5069551;28;20349;-51
2021/12/15 03:37:59;;;;;;;;;;;;;;;8.22;100.00;102827.53;5072879;28;20014;-53
2021/12/15 03:40:28;;;;;;;;;;;;;;;8.25;100.00;102832.69;5073866;28;20403;-51
2021/12/15 03:42:56;;;;;;;;;;;;;;;8.20;100.00;102824.06;5074501;28;19928;-52
2021/12/15 03:45:26;;;;;;;;;;;;;;;8.24;100.00;102828.34;5090263;28;19932;-51
2021/12/15 03:47:54;;;;;;;;;;;;;;;8.22;100.00;102831.91;5071613;28;19928;-50
2021/12/15 03:50:21;;;;;;;;;;;;;;;8.26;100.00;102831.81;5074196;28;20342;-52
2021/12/15 03:52:49;;;;;;;;;;;;;;;8.25;100.00;102832.69;5074532;28;20330;-51
2021/12/15 03:55:16;;;;;;;;;;;;;;;8.28;100.00;102832.63;5075585;28;19924;-50
2021/12/15 03:57:46;;;;;;;;;;;;;;;8.23;100.00;102833.63;5075594;28;19929;-52
2021/12/15 04:00:13;;;;;;;;;;;;;;;8.25;100.00;102842.34;5075556;28;20383;-53
2021/12/15 04:02:40;;;;;;;;;;;;;;;8.19;100.00;102837.22;5075356;28;19962;-52
2021/12/15 04:05:07;;;;;;;;;;;;;;;8.18;100.00;102839.00;5075213;28;19963;-51
2021/12/15 04:07:35;;;;;;;;;;;;;;;8.18;100.00;102841.63;5074045;28;20341;-52
2021/12/15 04:10:04;;;;;;;;;;;;;;;8.13;100.00;102835.59;5075493;28;19932;-51
2021/12/15 04:12:30;;;;;;;;;;;;;;;8.19;100.00;102840.69;5075225;28;19970;-51
2021/12/15 04:15:18;;;;;;;;;;;;;;;8.19;100.00;102843.31;5075026;28;19924;-50
2021/12/15 04:17:44;;;;;;;;;;;;;;;8.23;100.00;102842.34;5074899;28;19931;-50
2021/12/15 04:20:12;;;;;;;;;;;;;;;8.17;100.00;102839.88;5072528;28;19968;-51
2021/12/15 04:22:41;;;;;;;;;;;;;;;8.25;100.00;102842.34;5072702;28;19978;-53
2021/12/15 04:25:08;;;;;;;;;;;;;;;8.24;100.00;102845.84;5072400;28;19925;-51
2021/12/15 04:27:35;;;;;;;;;;;;;;;8.20;100.00;102850.28;5070800;28;20005;-52
2021/12/15 04:30:03;;;;;;;;;;;;;;;8.18;100.00;102853.84;5073456;28;20371;-49
2021/12/15 04:32:33;;;;;;;;;;;;;;;8.18;100.00;102846.84;5073968;28;19980;-51
2021/12/15 04:35:00;;;;;;;;;;;;;;;8.19;100.00;102851.19;5070236;28;19975;-50
2021/12/15 04:37:27;;;;;;;;;;;;;;;8.19;100.00;102856.41;5072372;28;19929;-54
2021/12/15 04:39:53;;;;;;;;;;;;;;;8.18;100.00;102856.47;5074604;28;20346;-50
2021/12/15 04:42:23;;;;;;;;;;;;;;;8.19;100.00;102853.78;5074894;28;19931;-50
2021/12/15 04:44:52;;;;;;;;;;;;;;;8.21;100.00;102853.78;5073177;28;19925;-51
2021/12/15 04:47:19;;;;;;;;;;;;;;;8.21;100.00;102854.63;5074557;28;19931;-48
2021/12/15 04:49:47;;;;;;;;;;;;;;;8.22;100.00;102855.50;5073466;28;19981;-53
2021/12/15 04:52:14;;;;;;;;;;;;;;;8.22;100.00;102856.38;5070544;28;20303;-52
2021/12/15 04:54:41;;;;;;;;;;;;;;;8.21;100.00;102862.50;5072616;28;19928;-52
2021/12/15 04:57:09;;;;;;;;;;;;;;;8.20;100.00;102863.41;5073214;28;19946;-50
2021/12/15 04:59:35;;;;;;;;;;;;;;;8.20;100.00;102850.28;5074184;28;19967;-50
2021/12/15 05:02:02;;;;;;;;;;;;;;;8.23;100.00;102859.84;5071181;28;19947;-52
2021/12/15 05:04:29;;;;;;;;;;;;;;;8.28;100.00;102864.06;5069520;28;19967;-48
2021/12/15 05:06:56;;;;;;;;;;;;;;;8.27;100.00;102862.34;5073775;28;19974;-50
2021/12/15 05:09:23;;;;;;;;;;;;;;;8.33;100.00;102863.09;5074038;28;19925;-52
2021/12/15 05:11:50;;;;;;;;;;;;;;;8.28;100.00;102863.22;5074345;28;19924;-51
2021/12/15 05:14:18;;;;;;;;;;;;;;;8.27;100.00;102862.34;5071012;28;19924;-48
2021/12/15 05:16:45;;;;;;;;;;;;;;;8.28;100.00;102858.84;5070492;28;20441;-51
2021/12/15 05:19:12;;;;;;;;;;;;;;;8.22;100.00;102863.34;5054469;28;19928;-50
2021/12/15 05:21:38;;;;;;;;;;;;;;;8.23;100.00;102868.56;5070865;28;19928;-52
2021/12/15 05:24:21;;;;;;;;;;;;;;;8.20;100.00;102860.78;5072954;28;20429;-49
2021/12/15 05:26:48;;;;;;;;;;;;;;;8.23;100.00;102865.94;5073623;28;19951;-50
2021/12/15 05:29:19;;;;;;;;;;;;;;;8.23;100.00;102871.19;5073910;28;19924;-53
2021/12/15 05:31:46;;;;;;;;;;;;;;;8.24;100.00;102874.69;5072064;28;20391;-52
2021/12/15 05:34:12;;;;;;;;;;;;;;;8.25;100.00;102879.03;5069416;28;19981;-51
2021/12/15 05:36:39;;;;;;;;;;;;;;;8.29;100.00;102880.69;5072403;28;19924;-52
2021/12/15 05:39:06;;;;;;;;;;;;;;;8.30;100.00;102885.00;5073457;28;20338;-52
2021/12/15 05:41:36;;;;;;;;;;;;;;;8.32;100.00;102882.34;5072154;28;19924;-49
2021/12/15 05:44:04;;;;;;;;;;;;;;;8.32;100.00;102877.09;5073499;28;19955;-53
2021/12/15 05:46:32;;;;;;;;;;;;;;;8.34;100.00;102877.94;5072689;28;19925;-49
2021/12/15 05:48:59;;;;;;;;;;;;;;;8.35;100.00;102877.06;5070066;28;19931;-49
2021/12/15 05:51:25;;;;;;;;;;;;;;;8.37;100.00;102877.88;5070227;28;19982;-50
2021/12/15 05:53:52;;;;;;;;;;;;;;;8.37;100.00;102883.13;5071638;28;19978;-50
2021/12/15 05:56:19;;;;;;;;;;;;;;;8.35;100.00;102883.16;5071156;28;20501;-49
2021/12/15 05:58:46;;;;;;;;;;;;;;;8.35;100.00;102882.31;5070478;28;19928;-48
2021/12/15 06:01:13;;;;;;;;;;;;;;;8.34;100.00;102884.03;5069983;28;20367;-53
2021/12/15 06:03:40;;;;;;;;;;;;;;;8.43;100.00;102888.22;5071992;28;20307;-48
2021/12/15 06:06:07;;;;;;;;;;;;;;;8.44;100.00;102887.34;5073011;28;20433;-46
2021/12/15 06:08:33;;;;;;;;;;;;;;;8.40;100.00;102889.16;5072821;28;19931;-46
2021/12/15 06:11:00;;;;;;;;;;;;;;;8.42;100.00;102894.34;5072914;28;19928;-47
2021/12/15 06:13:29;;;;;;;;;;;;;;;8.40;100.00;102890.94;5071585;28;19925;-47
2021/12/15 06:15:56;;;;;;;;;;;;;;;8.39;100.00;102892.66;5069953;28;19932;-51
2021/12/15 06:18:23;;;;;;;;;;;;;;;8.36;100.00;102891.91;5070555;28;19966;-53
2021/12/15 06:20:51;;;;;;;;;;;;;;;8.36;100.00;102894.53;5070148;28;19925;-49
2021/12/15 06:23:20;;;;;;;;;;;;;;;8.34;100.00;102891.91;5069187;28;19970;-50
2021/12/15 06:25:48;;;;;;;;;;;;;;;8.39;100.00;102899.69;5055192;28;19935;-52
2021/12/15 06:28:14;;;;;;;;;;;;;;;8.39;100.00;102891.81;5072710;28;20399;-52
2021/12/15 06:30:41;;;;;;;;;;;;;;;8.41;100.00;102903.13;5072519;28;19924;-49
2021/12/15 06:33:08;;;;;;;;;;;;;;;8.41;100.00;102905.75;5072818;28;20441;-52
2021/12/15 06:35:35;;;;;;;;;;;;;;;8.39;100.00;102902.31;5072297;28;19925;-51
2021/12/15 06:38:02;;;;;;;;;;;;;;;8.34;100.00;102897.16;5071277;28;19971;-50
2021/12/15 06:40:29;;;;;;;;;;;;;;;8.40;100.00;102899.66;5071254;28;19924;-50
2021/12/15 06:42:56;;;;;;;;;;;;;;;8.43;100.00;102898.72;5070094;28;19925;-50
2021/12/15 06:45:29;;;;;;;;;;;;;;;8.41;100.00;102903.13;5071482;28;19925;-52
2021/12/15 06:58:59;;;;;;;;;;;;;;;8.45;100.00;102899.56;5069876;28;20008;-49
2021/12/15 07:01:25;;;;;;;;;;;;;;;8.37;100.00;102897.09;5072455;28;19939;-49
2021/12/15 07:03:52;;;;;;;;;;;;;;;8.39;100.00;102910.16;5071332;28;20307;-52
2021/12/15 07:06:19;;;;;;;;;;;;;;;8.36;100.00;102913.72;5072379;28;20402;-50
2021/12/15 07:08:46;;;;;;;;;;;;;;;8.36;100.00;102913.72;5072156;28;19935;-51
2021/12/15 07:11:13;;;;;;;;;;;;;;;8.35;100.00;102927.72;5069444;28;19929;-50
2021/12/15 07:13:40;;;;;;;;;;;;;;;8.39;100.00;102926.75;5073569;28;20371;-48
2021/12/15 07:16:08;;;;;;;;;;;;;;;8.38;100.00;102930.25;5074797;28;19925;-51
2021/12/15 07:18:45;;;;;;;;;;;;;;;8.38;100.00;102929.41;5074744;28;19974;-51
2021/12/15 07:21:18;;;;;;;;;;;;;;;8.39;100.00;102923.28;5074850;28;19928;-51
2021/12/15 07:23:45;;;;;;;;;;;;;;;8.37;100.00;102935.53;5075749;28;20375;-48
2021/12/15 07:26:11;;;;;;;;;;;;;;;8.42;100.00;102936.31;5071604;28;19928;-48
2021/12/15 07:28:38;;;;;;;;;;;;;;;8.38;100.00;102937.28;5072450;28;19978;-49
2021/12/15 07:31:05;;;;;;;;;;;;;;;8.44;100.00;102931.91;5074469;28;19924;-52
2021/12/15 07:33:32;;;;;;;;;;;;;;;8.46;100.00;102922.28;5075681;28;19925;-51
2021/12/15 07:35:58;;;;;;;;;;;;;;;8.46;100.00;102924.88;5075774;28;20314;-52
2021/12/15 07:38:25;;;;;;;;;;;;;;;8.45;100.00;102923.16;5074540;28;20276;-51
2021/12/15 07:40:52;;;;;;;;;;;;;;;8.42;100.00;102923.19;5075797;28;20322;-50
2021/12/15 07:43:24;;;;;;;;;;;;;;;8.44;100.00;102927.53;5057768;28;19931;-50
2021/12/15 07:45:53;;;;;;;;;;;;;;;8.43;100.00;102936.28;5074558;28;20458;-52
2021/12/15 07:48:20;;;;;;;;;;;;;;;8.43;100.00;102940.66;5071184;28;20407;-51
2021/12/15 07:50:49;;;;;;;;;;;;;;;8.42;100.00;102941.56;5073205;28;19925;-50
2021/12/15 07:53:18;;;;;;;;;;;;;;;8.45;100.00;102947.63;5075421;28;19924;-52
2021/12/15 07:55:45;;;;;;;;;;;;;;;8.39;100.00;102957.38;5075318;28;19948;-52
2021/12/15 07:58:12;;;;;;;;;;;;;;;8.40;100.00;102952.09;5073987;28;19924;-52
2021/12/15 08:00:39;;;;;;;;;;;;;;;8.43;100.00;102953.78;5075371;28;20354;-53
2021/12/15 08:03:06;;;;;;;;;;;;;;;8.43;100.00;102956.41;5075001;28;19924;-51
2021/12/15 08:05:34;;;;;;;;;;;;;;;8.44;100.00;102959.00;5070561;28;19932;-51
2021/12/15 08:08:00;;;;;;;;;;;;;;;8.46;100.00;102946.72;5071913;28;19970;-53
2021/12/15 08:10:27;;;;;;;;;;;;;;;8.47;100.00;102952.84;5075078;28;19931;-50
2021/12/15 08:12:53;;;;;;;;;;;;;;;8.47;100.00;102947.59;5075325;28;19930;-47
2021/12/15 08:15:20;;;;;;;;;;;;;;;8.49;100.00;102955.44;5073815;28;19967;-50
2021/12/15 08:17:50;;;;;;;;;;;;;;;8.49;100.00;102943.16;5071322;28;19935;-48
2021/12/15 08:20:22;;;;;;;;;;;;;;;8.51;100.00;102951.88;5072254;28;19985;-50
2021/12/15 08:22:49;;;;;;;;;;;;;;;8.54;100.00;102958.81;5074590;28;19932;-49
2021/12/15 08:25:16;;;;;;;;;;;;;;;8.55;100.00;102955.28;5073641;28;19947;-53
2021/12/15 08:27:43;;;;;;;;;;;;;;;8.51;100.00;102962.38;5073541;28;19959;-48
2021/12/15 08:30:11;;;;;;;;;;;;;;;8.51;100.00;102957.13;5054413;28;19931;-49
2021/12/15 08:32:39;;;;;;;;;;;;;;;8.50;100.00;102963.25;5054358;28;19944;-48
2021/12/15 08:35:06;;;;;;;;;;;;;;;8.52;100.00;102965.84;5074722;28;19924;-48
2021/12/15 08:37:32;;;;;;;;;;;;;;;8.53;100.00;102968.44;5073259;28;20398;-46
2021/12/15 08:39:59;;;;;;;;;;;;;;;8.57;100.00;102961.38;5071241;28;19924;-49
2021/12/15 08:42:26;;;;;;;;;;;;;;;8.55;100.00;102965.75;5072108;28;19951;-47
2021/12/15 08:44:53;;;;;;;;;;;;;;;8.52;100.00;102971.09;5074001;28;19936;-50
2021/12/15 08:47:19;;;;;;;;;;;;;;;8.57;100.00;102962.22;5074357;28;19925;-50
2021/12/15 08:49:46;;;;;;;;;;;;;;;8.57;100.00;102963.97;5074270;28;19928;-49
2021/12/15 08:52:13;;;;;;;;;;;;;;;8.57;100.00;102969.22;5072561;28;20296;-47
2021/12/15 08:54:40;;;;;;;;;;;;;;;8.55;100.00;102969.28;5069768;28;20005;-52
2021/12/15 08:57:07;;;;;;;;;;;;;;;8.60;100.00;102964.78;5073426;28;19924;-48
2021/12/15 08:59:34;;;;;;;;;;;;;;;8.58;100.00;102970.97;5074112;28;19932;-47
2021/12/15 09:02:01;;;;;;;;;;;;;;;8.62;100.00;102973.47;5074104;28;19928;-47
2021/12/15 09:04:27;;;;;;;;;;;;;;;8.63;100.00;102969.09;5071528;28;19978;-51
2021/12/15 09:06:56;;;;;;;;;;;;;;;8.62;100.00;102968.22;5070649;28;19942;-49
2021/12/15 09:09:25;;;;;;;;;;;;;;;8.67;100.00;102960.25;5072353;28;19925;-47
2021/12/15 09:11:51;;;;;;;;;;;;;;;8.69;100.00;102957.59;5073652;28;19986;-49
2021/12/15 09:14:18;;;;;;;;;;;;;;;8.66;100.00;102965.53;5072551;28;19931;-50
2021/12/15 09:16:46;;;;;;;;;;;;;;;8.60;100.00;102971.78;5072784;28;19924;-49
2021/12/15 09:19:13;;;;;;;;;;;;;;;8.63;100.00;102979.59;5051717;28;20645;-52
2021/12/15 09:21:42;;;;;;;;;;;;;;;8.64;100.00;102978.66;5072084;28;19928;-48
2021/12/15 09:24:10;;;;;;;;;;;;;;;8.67;100.00;102978.63;5072575;28;19931;-47
2021/12/15 09:26:36;;;;;;;;;;;;;;;8.70;100.00;102985.53;5073403;28;19970;-51
2021/12/15 09:29:04;;;;;;;;;;;;;;;8.68;100.00;102982.94;5073444;28;19924;-50
2021/12/15 09:31:31;;;;;;;;;;;;;;;8.72;100.00;102989.00;5073235;28;19924;-52
2021/12/15 09:33:59;;;;;;;;;;;;;;;8.71;100.00;102988.16;5069938;28;19932;-52
2021/12/15 09:36:26;;;;;;;;;;;;;;;8.69;100.00;102996.94;5070196;28;19925;-52
2021/12/15 09:38:54;;;;;;;;;;;;;;;8.68;100.00;102987.34;5071346;28;19943;-51
2021/12/15 09:41:21;;;;;;;;;;;;;;;8.70;100.00;102993.41;5073305;28;19924;-51
2021/12/15 09:43:50;;;;;;;;;;;;;;;8.74;100.00;103001.19;5073473;28;19924;-52
2021/12/15 09:46:38;;;;;;;;;;;;;;;8.73;100.00;102995.97;5072130;28;20019;-51
2021/12/15 09:57:27;;;;;;;;;;;;;;;8.80;100.00;103003.66;5073145;28;19978;-53
2021/12/15 10:02:57;;;;;;;;;;;;;;;8.82;100.00;103001.03;5071322;28;19928;-50
2021/12/15 10:05:38;;;;;;;;;;;;;;;8.79;100.00;103001.06;5071842;28;19928;-50
2021/12/15 10:19:19;;;;;;;;;;;;;;;8.88;100.00;103008.72;5068583;28;19932;-50
2021/12/15 10:22:17;;;;;;;;;;;;;;;8.94;100.00;103013.84;5070543;28;19925;-49
2021/12/15 10:24:52;;;;;;;;;;;;;;;9.00;100.00;103004.97;5067920;28;19931;-49
2021/12/15 10:27:31;;;;;;;;;;;;;;;9.01;100.00;103008.44;5069698;28;19935;-51
2021/12/15 10:30:00;;;;;;;;;;;;;;;9.03;100.00;103004.03;5070139;28;19924;-48
2021/12/15 10:32:28;;;;;;;;;;;;;;;9.10;100.00;103010.84;5070042;28;19970;-51
2021/12/15 10:35:08;;;;;;;;;;;;;;;9.08;100.00;103007.38;5069494;28;19924;-51
2021/12/15 10:37:36;;;;;;;;;;;;;;;9.12;100.00;103007.28;5071941;28;20392;-49
2021/12/15 10:40:08;;;;;;;;;;;;;;;9.09;100.00;103015.25;5072583;28;19974;-52
2021/12/15 10:42:35;;;;;;;;;;;;;;;9.13;100.00;103016.00;5072570;28;19968;-51
2021/12/15 10:45:05;;;;;;;;;;;;;;;9.16;100.00;103017.72;5071027;28;19928;-52
2021/12/15 10:47:39;;;;;;;;;;;;;;;9.14;100.00;103018.59;5072326;28;19932;-50
2021/12/15 10:50:06;;;;;;;;;;;;;;;9.17;100.00;103012.41;5076678;28;19924;-49
2021/12/15 10:52:34;;;;;;;;;;;;;;;9.16;100.00;103010.69;5057371;28;20362;-48
2021/12/15 10:55:04;;;;;;;;;;;;;;;9.19;100.00;103004.50;5072776;28;19928;-51
2021/12/15 10:57:34;;;;;;;;;;;;;;;9.19;100.00;103007.13;5075065;28;19951;-53
2021/12/15 11:00:00;;;;;;;;;;;;;;;9.26;100.00;103004.31;5075265;28;19925;-48
2021/12/15 11:02:36;;;;;;;;;;;;;;;9.33;100.00;103001.53;5076490;28;19924;-49
2021/12/15 11:05:05;;;;;;;;;;;;;;;9.33;100.00;103001.53;5075229;28;19932;-48
2021/12/15 11:07:37;;;;;;;;;;;;;;;9.36;100.00;103009.34;5076304;28;19928;-46
2021/12/15 11:10:05;;;;;;;;;;;;;;;9.37;100.00;103004.03;5076340;28;19986;-49
2021/12/15 11:12:33;;;;;;;;;;;;;;;9.40;100.00;103008.34;5073831;28;19974;-51
2021/12/15 11:15:06;;;;;;;;;;;;;;;9.39;100.00;103001.38;5072464;28;19932;-49
2021/12/15 11:17:34;;;;;;;;;;;;;;;9.46;100.00;103005.56;5076290;28;19925;-47
2021/12/15 11:20:13;;;;;;;;;;;;;;;9.49;100.00;102997.63;5058331;28;19924;-49
2021/12/15 11:22:43;;;;;;;;;;;;;;;9.48;100.00;102996.72;5074632;28;19948;-49
2021/12/15 11:25:17;;;;;;;;;;;;;;;9.53;100.00;102993.13;5075933;28;19994;-53
2021/12/15 11:27:44;;;;;;;;;;;;;;;9.61;100.00;103002.53;5075805;28;19924;-49
2021/12/15 11:30:17;;;;;;;;;;;;;;;9.64;100.00;102997.19;5073286;28;19974;-48
2021/12/15 11:32:48;;;;;;;;;;;;;;;9.63;100.00;103000.72;5070959;28;20189;-50
2021/12/15 11:35:16;;;;;;;;;;;;;;;9.68;100.00;103007.63;5074901;28;19925;-48
2021/12/15 11:37:43;;;;;;;;;;;;;;;9.64;100.00;103010.34;5075520;28;19924;-50
2021/12/15 11:40:11;;;;;;;;;;;;;;;9.67;100.00;102998.88;5075741;28;20322;-48
2021/12/15 11:42:39;;;;;;;;;;;;;;;9.67;100.00;102996.25;5075864;28;19932;-50
2021/12/15 11:45:09;;;;;;;;;;;;;;;9.73;100.00;102995.22;5075612;28;19990;-48
2021/12/15 11:47:37;;;;;;;;;;;;;;;9.74;100.00;102989.91;5074260;28;20367;-47
2021/12/15 11:50:11;;;;;;;;;;;;;;;9.75;100.00;102993.44;5075431;28;19924;-50
2021/12/15 11:52:46;;;;;;;;;;;;;;;9.76;100.00;102984.63;5075403;28;19973;-49
2021/12/15 11:55:26;;;;;;;;;;;;;;;9.81;100.00;102988.84;5075698;28;20400;-47
2021/12/15 11:57:53;;;;;;;;;;;;;;;9.82;100.00;102993.19;5074778;28;20014;-49
2021/12/15 12:00:21;;;;;;;;;;;;;;;9.83;100.00;102991.44;5071778;28;19932;-53
2021/12/15 12:02:51;;;;;;;;;;;;;;;9.83;100.00;102991.44;5071283;28;20416;-50
2021/12/15 12:05:20;;;;;;;;;;;;;;;9.81;100.00;102986.22;5074933;28;19924;-48
2021/12/15 12:07:47;;;;;;;;;;;;;;;9.80;100.00;102986.25;5075091;28;19935;-52
2021/12/15 12:10:17;;;;;;;;;;;;;;;9.78;100.00;102988.09;5074520;28;19925;-50
2021/12/15 12:12:52;;;;;;;;;;;;;;;9.77;100.00;102986.34;5074525;28;19925;-51
2021/12/15 12:15:41;;;;;;;;;;;;;;;9.77;100.00;102981.09;5075069;28;19978;-53
2021/12/15 12:18:10;;;;;;;;;;;;;;;9.85;100.00;102973.84;5075029;28;19924;-46
2021/12/15 12:20:38;;;;;;;;;;;;;;;9.86;100.00;102966.81;5074863;28;19932;-51
2021/12/15 12:23:06;;;;;;;;;;;;;;;9.85;100.00;102976.47;5074833;28;20010;-51
2021/12/15 12:25:36;;;;;;;;;;;;;;;9.90;100.00;102973.75;5074873;28;20367;-51
2021/12/15 12:28:04;;;;;;;;;;;;;;;9.83;100.00;102975.69;5075272;28;20236;-53
2021/12/15 12:30:32;;;;;;;;;;;;;;;9.84;100.00;102977.38;5073548;28;19924;-52
2021/12/15 12:32:59;;;;;;;;;;;;;;;9.90;100.00;102971.97;5072245;28;19924;-51
2021/12/15 12:35:28;;;;;;;;;;;;;;;9.93;100.00;102971.88;5071585;28;19932;-52
2021/12/15 12:37:59;;;;;;;;;;;;;;;9.93;100.00;102971.03;5073764;28;19925;-53
2021/12/15 12:40:27;;;;;;;;;;;;;;;9.97;100.00;102970.03;5073859;28;19942;-54
2021/12/15 12:42:54;;;;;;;;;;;;;;;10.00;100.00;102971.72;5071374;28;19925;-50
2021/12/15 12:45:31;;;;;;;;;;;;;;;10.04;100.00;102974.19;5054645;28;19975;-50
2021/12/15 12:48:27;;;;;;;;;;;;;;;10.06;100.00;102955.75;5073241;28;19925;-52
2021/12/15 12:59:25;;;;;;;;;;;;;;;10.09;100.00;102953.00;5071557;28;19928;-51
2021/12/15 13:01:52;;;;;;;;;;;;;;;10.12;100.00;102951.16;5073966;28;19924;-52
2021/12/15 13:04:19;;;;;;;;;;;;;;;10.12;100.00;102955.56;5074389;28;19924;-53
2021/12/15 13:06:46;;;;;;;;;;;;;;;10.15;100.00;102956.31;5073898;28;19924;-52
2021/12/15 13:09:16;;;;;;;;;;;;;;;10.16;100.00;102962.47;5071122;28;19970;-53
2021/12/15 13:11:47;;;;;;;;;;;;;;;10.17;100.00;102964.19;5069462;28;20379;-52
2021/12/15 13:14:18;;;;;;;;;;;;;;;10.17;100.00;102965.94;5072695;28;19932;-54
2021/12/15 13:16:55;;;;;;;;;;;;;;;10.16;100.00;102972.97;5073767;28;20379;-51
2021/12/15 13:19:26;;;;;;;;;;;;;;;10.21;100.00;102964.94;5073721;28;19928;-52
2021/12/15 13:30:54;;;;;;;;;;;;;;;10.26;100.00;102963.91;5072951;28;19932;-53
2021/12/15 13:33:27;;;;;;;;;;;;;;;10.27;100.00;102965.63;5071187;28;19924;-50
2021/12/15 13:35:56;;;;;;;;;;;;;;;10.30;100.00;102965.53;5069216;28;20338;-51
2021/12/15 13:38:32;;;;;;;;;;;;;;;10.31;100.00;102977.78;5072464;28;19996;-49
2021/12/15 13:41:13;;;;;;;;;;;;;;;10.28;100.00;102971.72;5073366;28;19928;-53
2021/12/15 13:43:45;;;;;;;;;;;;;;;10.33;100.00;102967.19;5073386;28;20373;-53
2021/12/15 13:46:23;;;;;;;;;;;;;;;10.37;100.00;102965.38;5071886;28;20406;-49
2021/12/15 13:49:06;;;;;;;;;;;;;;;10.31;100.00;102964.63;5068814;28;19925;-51
2021/12/15 13:51:52;;;;;;;;;;;;;;;10.29;100.00;102970.84;5071839;28;19931;-50
2021/12/15 13:54:22;;;;;;;;;;;;;;;10.23;100.00;102964.00;5073207;28;20326;-53
2021/12/15 13:56:50;;;;;;;;;;;;;;;10.22;100.00;102977.19;5073043;28;19924;-49
2021/12/15 13:59:33;;;;;;;;;;;;;;;10.26;100.00;102974.41;5059546;28;19931;-53
2021/12/15 14:02:17;;;;;;;;;;;;;;;10.24;100.00;102973.63;5064978;28;20367;-52
2021/12/15 14:04:43;;;;;;;;;;;;;;;10.30;100.00;102975.19;5072542;28;19925;-52
2021/12/15 14:07:30;;;;;;;;;;;;;;;10.21;100.00;102976.34;5071233;28;19928;-48
2021/12/15 14:10:00;;;;;;;;;;;;;;;10.20;100.00;102977.25;5102762;28;19924;-53
2021/12/15 14:12:46;;;;;;;;;;;;;;;10.25;100.00;102979.72;5071536;28;20015;-51